Kaiyo — JGBF — position and weather

sailwx.info

Track history (hours):
 
Tides and Currents Weather Stations Pressure Air Temp Water Temp Dewpoint Dewpoint Depression Visibility Wind Speed Wind Dir Waves Ship Positions

Oceanographic research ship Kaiyo (Japan)

Detailed information on ship capabilities available from University of Delaware's Ocean Information Center.

Last reported at 2019-Apr-14 05:00 UTC. Time now 2019-Apr-18 21:02 UTC.
Position N 35°38' E 139°47'.

Type: Cargo ship. MMSI: 431100049.

Date/timePositionNaut miles runAvg speedWind from/ knotsBaromVisibWave heightAir tempDewpointWater temp
2019-Apr-14 05:00N 35°38' E 139°47'4 7.9
2019-Apr-14 04:29N 35°34' E 139°48'2 4.2
2019-Apr-14 03:56N 35°35' E 139°51'0 0.9
2019-Apr-14 03:22N 35°35' E 139°51'0 0.9
2019-Apr-14 03:00N 35°35' E 139°52'0 0.2
2019-Apr-14 02:30N 35°35' E 139°51'0 0.3
2019-Apr-14 02:00N 35°35' E 139°52'1 0.8
2019-Apr-14 01:17N 35°34' E 139°52'2 6.9
2019-Apr-14 01:01N 35°34' E 139°49'510.3
2019-Apr-14 00:30N 35°38' E 139°46'  
2019-Apr-08 07:20N 35°38' E 139°47'4 7.0
2019-Apr-08 06:46N 35°35' E 139°48'311.1
2019-Apr-08 06:30N 35°34' E 139°52'1 1.1
2019-Apr-08 05:56N 35°34' E 139°53'0 0.0
2019-Apr-08 04:52N 35°34' E 139°52'0 0.0
2019-Apr-08 04:22N 35°34' E 139°52'0 0.0
2019-Apr-08 03:58N 35°34' E 139°52'0 0.0
2019-Apr-08 03:28N 35°34' E 139°52'0 0.0
2019-Apr-08 02:58N 35°34' E 139°52'0 0.0
2019-Apr-08 02:13N 35°34' E 139°52'0 0.4
2019-Apr-08 01:53N 35°34' E 139°53'2 4.9
2019-Apr-08 01:30N 35°34' E 139°50'5 8.9
2019-Apr-08 00:59N 35°37' E 139°46'1 2.1
2019-Apr-08 00:25N 35°38' E 139°47'0 0.0
2019-Apr-07 06:39N 35°38' E 139°47'0 1.6
2019-Apr-07 06:30N 35°38' E 139°46'0 0.4
2019-Apr-07 05:56N 35°38' E 139°47'0 0.0
2019-Apr-07 04:56N 35°38' E 139°47'  
Track history (hours):
 
Tides and Currents Weather Stations Pressure Air Temp Water Temp Dewpoint Dewpoint Depression Visibility Wind Speed Wind Dir Waves Ship Positions

Oceanographic research ship Kaiyo (Japan)

Detailed information on ship capabilities available from University of Delaware's Ocean Information Center.

Last reported at 2019-Apr-14 05:00 UTC. Time now 2019-Apr-18 21:02 UTC.
Position N 35°38' E 139°47'.

Type: Cargo ship. MMSI: 431100049.

Date/timePositionNaut miles runAvg speedWind from/ knotsBaromVisibWave heightAir tempDewpointWater temp
2019-Apr-14 05:00N 35°38' E 139°47'4 7.9
2019-Apr-14 04:29N 35°34' E 139°48'2 4.2
2019-Apr-14 03:56N 35°35' E 139°51'0 0.9
2019-Apr-14 03:22N 35°35' E 139°51'0 0.9
2019-Apr-14 03:00N 35°35' E 139°52'0 0.2
2019-Apr-14 02:30N 35°35' E 139°51'0 0.3
2019-Apr-14 02:00N 35°35' E 139°52'1 0.8
2019-Apr-14 01:17N 35°34' E 139°52'2 6.9
2019-Apr-14 01:01N 35°34' E 139°49'510.3
2019-Apr-14 00:30N 35°38' E 139°46'  
2019-Apr-08 07:20N 35°38' E 139°47'4 7.0
2019-Apr-08 06:46N 35°35' E 139°48'311.1
2019-Apr-08 06:30N 35°34' E 139°52'1 1.1
2019-Apr-08 05:56N 35°34' E 139°53'0 0.0
2019-Apr-08 04:52N 35°34' E 139°52'0 0.0
2019-Apr-08 04:22N 35°34' E 139°52'0 0.0
2019-Apr-08 03:58N 35°34' E 139°52'0 0.0
2019-Apr-08 03:28N 35°34' E 139°52'0 0.0
2019-Apr-08 02:58N 35°34' E 139°52'0 0.0
2019-Apr-08 02:13N 35°34' E 139°52'0 0.4
2019-Apr-08 01:53N 35°34' E 139°53'2 4.9
2019-Apr-08 01:30N 35°34' E 139°50'5 8.9
2019-Apr-08 00:59N 35°37' E 139°46'1 2.1
2019-Apr-08 00:25N 35°38' E 139°47'0 0.0
2019-Apr-07 06:39N 35°38' E 139°47'0 1.6
2019-Apr-07 06:30N 35°38' E 139°46'0 0.4
2019-Apr-07 05:56N 35°38' E 139°47'0 0.0
2019-Apr-07 04:56N 35°38' E 139°47'  

Dump ship's entire track history